Time;durP1;ratioP1;P1;durP2;ratioP2;P2;SDS_P1;SDS_P2;PMS_P1;PMS_P2;Temp;Humidity;BMP_temperature;BMP_pressure;BME280_temperature;BME280_humidity;BME280_pressure;Samples;Min_cycle;Max_cycle;Signal;HPM_P1;HPM_P2
2022/07/20 00:00:51;;;;;;;;;;;29.50;39.30;;;;;;4998720;28;19929;-78
2022/07/20 00:03:19;;;;;;;;;;;29.50;39.40;;;;;;5004523;28;19952;-79
2022/07/20 00:05:46;;;;;;;;;;;29.40;39.50;;;;;;5000386;28;19930;-79
2022/07/20 00:08:13;;;;;;;;;;;29.40;39.50;;;;;;5004077;28;19981;-79
2022/07/20 00:13:28;;;;;;;;;;;29.30;39.60;;;;;;4986259;28;19926;-79
2022/07/20 00:15:55;;;;;;;;;;;29.20;39.60;;;;;;5000121;28;19937;-77
2022/07/20 00:18:23;;;;;;;;;;;29.20;39.80;;;;;;5000878;28;19933;-78
2022/07/20 00:20:50;;;;;;;;;;;29.20;40.00;;;;;;5002155;28;19973;-78
2022/07/20 00:23:16;;;;;;;;;;;29.10;40.00;;;;;;5002642;28;19952;-78
2022/07/20 00:25:43;;;;;;;;;;;29.10;40.00;;;;;;4999968;28;20460;-78
2022/07/20 00:28:09;;;;;;;;;;;29.00;40.00;;;;;;4999229;28;19952;-78
2022/07/20 00:30:36;;;;;;;;;;;29.00;40.10;;;;;;4994826;28;19934;-78
2022/07/20 00:33:02;;;;;;;;;;;28.90;40.30;;;;;;5000836;28;19940;-79
2022/07/20 00:35:30;;;;;;;;;;;28.90;40.40;;;;;;4997696;28;19933;-78
2022/07/20 00:37:57;;;;;;;;;;;28.80;40.40;;;;;;4997558;28;19933;-79
2022/07/20 00:40:23;;;;;;;;;;;28.80;40.50;;;;;;5002314;28;19930;-77
2022/07/20 00:42:50;;;;;;;;;;;28.70;40.50;;;;;;4995601;28;19936;-80
2022/07/20 00:45:17;;;;;;;;;;;28.70;40.50;;;;;;5000016;28;19929;-78
2022/07/20 00:47:43;;;;;;;;;;;28.60;40.60;;;;;;5005970;28;19941;-78
2022/07/20 00:50:10;;;;;;;;;;;28.60;40.70;;;;;;5005804;28;19929;-78
2022/07/20 00:52:38;;;;;;;;;;;28.50;40.70;;;;;;4995158;28;20928;-78
2022/07/20 00:55:05;;;;;;;;;;;28.50;40.70;;;;;;4998758;28;19940;-78
2022/07/20 00:57:31;;;;;;;;;;;28.40;40.80;;;;;;5004338;28;19926;-79
2022/07/20 00:59:58;;;;;;;;;;;28.40;40.90;;;;;;5001535;28;19934;-78
2022/07/20 01:02:25;;;;;;;;;;;28.40;41.00;;;;;;5003318;28;20489;-78
2022/07/20 01:04:51;;;;;;;;;;;28.30;41.10;;;;;;4992762;28;19941;-78
2022/07/20 01:07:18;;;;;;;;;;;28.30;41.00;;;;;;4999912;28;20403;-77
2022/07/20 01:09:47;;;;;;;;;;;28.30;41.10;;;;;;4995183;28;20394;-77
2022/07/20 01:12:13;;;;;;;;;;;28.20;41.20;;;;;;4999129;28;20415;-78
2022/07/20 01:14:40;;;;;;;;;;;28.20;41.20;;;;;;4994328;28;19937;-77
2022/07/20 01:17:06;;;;;;;;;;;28.10;41.30;;;;;;5009398;28;19936;-78
2022/07/20 01:19:33;;;;;;;;;;;28.10;41.30;;;;;;5002433;28;19930;-78
2022/07/20 01:22:01;;;;;;;;;;;28.10;41.40;;;;;;4998435;28;19934;-77
2022/07/20 01:24:27;;;;;;;;;;;28.00;41.50;;;;;;4998105;28;20015;-78
2022/07/20 01:26:54;;;;;;;;;;;28.00;41.50;;;;;;4996302;28;19985;-77
2022/07/20 01:29:21;;;;;;;;;;;27.90;41.60;;;;;;5000110;28;19937;-78
2022/07/20 01:31:47;;;;;;;;;;;27.90;42.20;;;;;;4994000;28;20472;-78
2022/07/20 01:34:14;;;;;;;;;;;27.80;41.50;;;;;;5004926;28;19934;-76
2022/07/20 01:36:41;;;;;;;;;;;27.80;41.70;;;;;;4999354;28;19934;-78
2022/07/20 01:39:09;;;;;;;;;;;27.80;41.90;;;;;;4999562;28;19933;-78
2022/07/20 01:41:35;;;;;;;;;;;27.70;41.70;;;;;;4996297;28;19941;-77
2022/07/20 01:44:02;;;;;;;;;;;27.70;41.70;;;;;;5001858;28;19933;-78
2022/07/20 01:46:28;;;;;;;;;;;27.60;41.80;;;;;;5000625;28;20314;-77
2022/07/20 01:48:55;;;;;;;;;;;27.60;41.80;;;;;;5001033;28;19930;-78
2022/07/20 01:51:21;;;;;;;;;;;27.60;41.90;;;;;;5000290;28;19933;-77
2022/07/20 01:53:48;;;;;;;;;;;27.50;42.00;;;;;;4999711;28;19952;-78
2022/07/20 01:56:16;;;;;;;;;;;27.50;41.80;;;;;;5001411;28;19933;-78
2022/07/20 01:58:42;;;;;;;;;;;27.40;41.90;;;;;;5002097;28;19936;-77
2022/07/20 02:01:09;;;;;;;;;;;27.40;41.90;;;;;;4995503;28;19936;-77
2022/07/20 02:03:37;;;;;;;;;;;27.40;42.00;;;;;;4999775;28;19929;-78
2022/07/20 02:06:04;;;;;;;;;;;27.30;41.90;;;;;;5001928;28;19952;-79
2022/07/20 02:08:31;;;;;;;;;;;27.30;42.10;;;;;;5001362;28;19930;-77
2022/07/20 02:10:57;;;;;;;;;;;27.30;42.10;;;;;;5001551;28;19933;-78
2022/07/20 02:13:25;;;;;;;;;;;27.30;42.20;;;;;;5003121;28;19929;-77
2022/07/20 02:18:36;;;;;;;;;;;27.20;42.20;;;;;;4994256;28;19935;-78
2022/07/20 02:21:02;;;;;;;;;;;27.20;42.30;;;;;;4999878;28;19937;-78
2022/07/20 02:23:29;;;;;;;;;;;27.10;42.30;;;;;;4996410;28;19940;-78
2022/07/20 02:25:55;;;;;;;;;;;27.10;42.50;;;;;;5000396;28;19930;-78
2022/07/20 02:28:22;;;;;;;;;;;27.00;42.50;;;;;;5000963;28;19936;-78
2022/07/20 02:30:50;;;;;;;;;;;27.00;42.60;;;;;;4997768;28;19936;-78
2022/07/20 02:33:16;;;;;;;;;;;27.00;42.70;;;;;;5003733;28;19929;-77
2022/07/20 02:35:43;;;;;;;;;;;26.90;42.70;;;;;;4998551;28;20616;-78
2022/07/20 02:38:09;;;;;;;;;;;26.90;42.80;;;;;;4997942;28;19940;-77
2022/07/20 02:40:36;;;;;;;;;;;26.80;42.80;;;;;;5002494;28;20402;-77
2022/07/20 02:43:02;;;;;;;;;;;26.80;42.80;;;;;;5000416;28;19940;-77
2022/07/20 02:45:29;;;;;;;;;;;26.80;42.90;;;;;;5004020;28;20452;-76
2022/07/20 02:48:02;;;;;;;;;;;26.80;43.10;;;;;;5003986;28;19929;-77
2022/07/20 02:50:29;;;;;;;;;;;26.70;43.00;;;;;;5004519;28;20472;-78
2022/07/20 02:52:56;;;;;;;;;;;26.70;42.90;;;;;;5002139;28;20595;-77
2022/07/20 02:55:22;;;;;;;;;;;26.70;43.00;;;;;;5000900;28;20036;-78
2022/07/20 02:57:49;;;;;;;;;;;26.60;43.10;;;;;;5002361;28;20056;-78
2022/07/20 03:00:16;;;;;;;;;;;26.60;43.50;;;;;;4999007;28;20220;-78
2022/07/20 03:02:42;;;;;;;;;;;26.60;43.50;;;;;;5001629;28;20782;-78
2022/07/20 03:05:10;;;;;;;;;;;26.60;43.40;;;;;;5000881;28;19929;-77
2022/07/20 03:07:37;;;;;;;;;;;26.50;43.50;;;;;;4999332;28;19930;-77
2022/07/20 03:10:04;;;;;;;;;;;26.50;43.60;;;;;;5003194;28;19929;-78
2022/07/20 03:12:30;;;;;;;;;;;26.40;43.70;;;;;;5002761;28;20433;-79
2022/07/20 03:14:57;;;;;;;;;;;26.40;43.80;;;;;;5000910;28;19938;-77
2022/07/20 03:17:24;;;;;;;;;;;26.40;43.90;;;;;;5000924;28;19933;-78
2022/07/20 03:19:50;;;;;;;;;;;26.40;44.00;;;;;;4997313;28;19929;-78
2022/07/20 03:25:05;;;;;;;;;;;26.30;44.00;;;;;;5001346;28;19934;-79
2022/07/20 03:27:32;;;;;;;;;;;26.30;44.10;;;;;;5002228;28;20050;-78
2022/07/20 03:29:58;;;;;;;;;;;26.20;44.10;;;;;;5000396;28;19936;-77
2022/07/20 03:32:25;;;;;;;;;;;26.20;44.20;;;;;;5000613;28;19933;-76
2022/07/20 03:34:51;;;;;;;;;;;26.20;44.30;;;;;;5002843;28;19956;-78
2022/07/20 03:37:19;;;;;;;;;;;26.10;44.30;;;;;;5001561;28;20302;-77
2022/07/20 03:39:46;;;;;;;;;;;26.10;44.20;;;;;;5002923;28;19930;-78
2022/07/20 03:42:12;;;;;;;;;;;26.10;44.40;;;;;;4998177;28;20309;-78
2022/07/20 03:44:39;;;;;;;;;;;26.00;44.40;;;;;;4998786;28;20365;-76
2022/07/20 03:47:05;;;;;;;;;;;26.00;44.40;;;;;;5000961;28;20453;-79
2022/07/20 03:49:32;;;;;;;;;;;26.00;44.50;;;;;;5006595;28;19940;-78
2022/07/20 03:51:59;;;;;;;;;;;26.00;44.50;;;;;;5000075;28;20597;-78
2022/07/20 03:54:26;;;;;;;;;;;25.90;44.50;;;;;;5002911;28;19937;-78
2022/07/20 03:56:53;;;;;;;;;;;25.90;44.60;;;;;;5004166;28;20349;-78
2022/07/20 03:59:20;;;;;;;;;;;25.80;44.60;;;;;;5000509;28;19936;-78
2022/07/20 04:01:46;;;;;;;;;;;25.80;44.60;;;;;;4998007;28;19930;-77
2022/07/20 04:04:13;;;;;;;;;;;25.80;44.70;;;;;;5005088;28;19929;-78
2022/07/20 04:06:39;;;;;;;;;;;25.80;44.80;;;;;;4996351;28;20767;-78
2022/07/20 04:09:06;;;;;;;;;;;25.70;44.70;;;;;;5003624;28;19944;-77
2022/07/20 04:11:35;;;;;;;;;;;25.70;44.80;;;;;;4998598;28;19934;-78
2022/07/20 04:14:02;;;;;;;;;;;25.70;44.90;;;;;;5002947;28;19929;-77
2022/07/20 04:16:28;;;;;;;;;;;25.70;44.90;;;;;;5003489;28;19941;-78
2022/07/20 04:18:55;;;;;;;;;;;25.60;45.00;;;;;;5002445;28;19957;-78
2022/07/20 04:21:21;;;;;;;;;;;25.60;45.00;;;;;;5005305;28;19996;-78
2022/07/20 04:23:48;;;;;;;;;;;25.60;45.10;;;;;;5001119;28;19930;-78
2022/07/20 04:26:15;;;;;;;;;;;25.50;45.00;;;;;;5008133;28;20421;-79
2022/07/20 04:28:42;;;;;;;;;;;25.50;45.10;;;;;;5000122;28;19934;-77
2022/07/20 04:31:09;;;;;;;;;;;25.50;45.10;;;;;;4995726;28;19936;-78
2022/07/20 04:33:36;;;;;;;;;;;25.50;45.10;;;;;;5002161;28;19929;-79
2022/07/20 04:36:02;;;;;;;;;;;25.50;45.30;;;;;;5001770;28;19930;-79
2022/07/20 04:38:29;;;;;;;;;;;25.40;45.30;;;;;;5000073;28;19934;-79
2022/07/20 04:40:56;;;;;;;;;;;25.40;45.30;;;;;;4999164;28;19930;-78
2022/07/20 04:43:23;;;;;;;;;;;25.40;45.40;;;;;;5003694;28;20425;-81
2022/07/20 04:45:51;;;;;;;;;;;25.30;45.40;;;;;;5001260;28;20418;-78
2022/07/20 04:48:17;;;;;;;;;;;25.30;45.40;;;;;;5001101;28;20703;-79
2022/07/20 04:50:44;;;;;;;;;;;25.30;45.40;;;;;;5007655;28;19937;-80
2022/07/20 04:53:11;;;;;;;;;;;25.30;45.60;;;;;;5004800;28;19936;-79
2022/07/20 04:55:37;;;;;;;;;;;25.30;45.50;;;;;;5007603;28;19936;-78
2022/07/20 04:58:04;;;;;;;;;;;25.20;46.10;;;;;;5002956;28;19933;-79
2022/07/20 05:00:31;;;;;;;;;;;25.30;45.70;;;;;;5005036;28;20208;-78
2022/07/20 05:02:58;;;;;;;;;;;25.20;46.40;;;;;;5007333;28;19929;-79
2022/07/20 05:05:25;;;;;;;;;;;24.90;47.80;;;;;;5010425;28;19952;-81
2022/07/20 05:07:52;;;;;;;;;;;24.70;47.80;;;;;;5004710;28;20357;-80
2022/07/20 05:10:18;;;;;;;;;;;24.70;48.00;;;;;;5008104;28;19971;-79
2022/07/20 05:12:45;;;;;;;;;;;24.70;48.20;;;;;;5005322;28;19938;-81
2022/07/20 05:15:11;;;;;;;;;;;24.60;48.20;;;;;;5003647;28;19934;-80
2022/07/20 05:17:38;;;;;;;;;;;24.60;48.30;;;;;;5006424;28;19930;-79
2022/07/20 05:20:07;;;;;;;;;;;24.70;48.30;;;;;;5007131;28;19929;-80
2022/07/20 05:22:33;;;;;;;;;;;24.60;48.30;;;;;;5006953;28;19929;-80
2022/07/20 05:25:00;;;;;;;;;;;24.60;48.10;;;;;;5009300;28;19933;-79
2022/07/20 05:27:26;;;;;;;;;;;24.60;48.10;;;;;;5004715;28;20534;-80
2022/07/20 05:29:53;;;;;;;;;;;24.60;48.10;;;;;;5006972;28;19937;-79
2022/07/20 05:32:19;;;;;;;;;;;24.70;48.00;;;;;;5012144;28;19936;-80
2022/07/20 05:34:46;;;;;;;;;;;24.60;47.90;;;;;;5008584;28;19941;-80
2022/07/20 05:37:14;;;;;;;;;;;24.60;48.00;;;;;;5006565;28;19932;-79
2022/07/20 05:39:40;;;;;;;;;;;24.60;47.90;;;;;;5010083;28;19929;-78
2022/07/20 05:42:07;;;;;;;;;;;24.60;48.00;;;;;;5004073;28;19940;-80
2022/07/20 05:44:34;;;;;;;;;;;24.60;48.00;;;;;;5005319;28;20228;-80
2022/07/20 05:47:00;;;;;;;;;;;24.60;47.90;;;;;;5003107;28;20516;-80
2022/07/20 05:49:27;;;;;;;;;;;24.70;48.00;;;;;;5008580;28;19967;-80
2022/07/20 05:51:53;;;;;;;;;;;24.70;48.00;;;;;;5005415;28;19930;-79
2022/07/20 05:54:21;;;;;;;;;;;24.70;48.00;;;;;;5016362;28;20004;-80
2022/07/20 05:56:48;;;;;;;;;;;24.70;48.10;;;;;;5006751;28;19966;-79
2022/07/20 05:59:14;;;;;;;;;;;24.60;48.10;;;;;;5005284;28;19940;-80
2022/07/20 06:01:43;;;;;;;;;;;24.70;48.50;;;;;;5001977;28;20657;-79
2022/07/20 06:04:10;;;;;;;;;;;24.70;48.70;;;;;;5012293;28;19959;-79
2022/07/20 06:06:37;;;;;;;;;;;24.70;48.70;;;;;;5002524;28;19937;-79
2022/07/20 06:09:03;;;;;;;;;;;24.70;48.60;;;;;;5001322;28;19937;-79
2022/07/20 06:11:31;;;;;;;;;;;24.70;48.80;;;;;;5005297;28;19937;-79
2022/07/20 06:13:58;;;;;;;;;;;24.70;48.80;;;;;;5004286;28;19952;-79
2022/07/20 06:16:24;;;;;;;;;;;24.80;48.80;;;;;;5004484;28;19930;-79
2022/07/20 06:18:51;;;;;;;;;;;24.80;48.70;;;;;;5008033;28;19941;-79
2022/07/20 06:21:17;;;;;;;;;;;24.80;48.80;;;;;;5002019;28;19936;-80
2022/07/20 06:23:44;;;;;;;;;;;24.80;48.70;;;;;;5006609;28;19929;-80
2022/07/20 06:26:11;;;;;;;;;;;24.70;48.70;;;;;;5006666;28;19929;-79
2022/07/20 06:28:39;;;;;;;;;;;24.80;48.70;;;;;;5000500;28;19940;-79
2022/07/20 06:31:06;;;;;;;;;;;24.80;48.70;;;;;;5003017;28;19936;-80
2022/07/20 06:33:32;;;;;;;;;;;24.90;49.20;;;;;;5008583;28;19933;-79
2022/07/20 06:35:59;;;;;;;;;;;24.90;48.70;;;;;;4999695;28;19933;-79
2022/07/20 06:38:26;;;;;;;;;;;24.90;48.80;;;;;;5003293;28;20457;-79
2022/07/20 06:40:52;;;;;;;;;;;24.90;48.90;;;;;;5004574;28;19933;-78
2022/07/20 06:43:19;;;;;;;;;;;24.90;48.80;;;;;;5005391;28;19929;-79
2022/07/20 06:45:49;;;;;;;;;;;24.90;48.80;;;;;;5003005;28;19933;-80
2022/07/20 06:48:15;;;;;;;;;;;24.90;48.90;;;;;;5002601;28;20046;-80
2022/07/20 06:50:42;;;;;;;;;;;24.90;48.70;;;;;;5008304;28;19955;-80
2022/07/20 06:53:08;;;;;;;;;;;24.90;48.80;;;;;;5011215;28;19925;-80
2022/07/20 06:55:35;;;;;;;;;;;24.90;48.80;;;;;;5002170;28;19930;-81
2022/07/20 06:58:01;;;;;;;;;;;25.00;48.90;;;;;;5002090;28;19937;-79
2022/07/20 07:00:29;;;;;;;;;;;25.00;49.40;;;;;;4999934;28;19930;-78
2022/07/20 07:02:57;;;;;;;;;;;25.00;48.90;;;;;;5005682;28;19929;-79
2022/07/20 07:05:24;;;;;;;;;;;25.00;49.00;;;;;;5004047;28;19940;-79
2022/07/20 07:07:50;;;;;;;;;;;25.00;48.90;;;;;;5004692;28;20524;-78
2022/07/20 07:10:17;;;;;;;;;;;25.00;48.90;;;;;;5004843;28;19933;-79
2022/07/20 07:12:43;;;;;;;;;;;25.10;48.80;;;;;;5003077;28;19937;-78
2022/07/20 07:15:10;;;;;;;;;;;25.10;48.70;;;;;;5000329;28;21161;-80
2022/07/20 07:17:37;;;;;;;;;;;25.10;48.70;;;;;;5010676;28;19934;-80
2022/07/20 07:20:05;;;;;;;;;;;25.10;48.50;;;;;;5004967;28;19929;-79
2022/07/20 07:22:32;;;;;;;;;;;25.10;48.60;;;;;;5004594;28;19935;-79
2022/07/20 07:24:59;;;;;;;;;;;25.20;48.80;;;;;;5017052;28;19929;-79
2022/07/20 07:27:25;;;;;;;;;;;25.20;48.80;;;;;;5005841;28;19936;-79
2022/07/20 07:29:52;;;;;;;;;;;25.20;48.90;;;;;;5010180;28;19929;-79
2022/07/20 07:32:19;;;;;;;;;;;25.30;48.70;;;;;;5007931;28;19929;-78
2022/07/20 07:34:45;;;;;;;;;;;25.30;48.80;;;;;;5007977;28;19933;-79
2022/07/20 07:37:13;;;;;;;;;;;25.30;48.70;;;;;;5004526;28;20308;-78
2022/07/20 07:39:41;;;;;;;;;;;25.30;48.60;;;;;;5013400;28;19929;-77
2022/07/20 07:42:08;;;;;;;;;;;25.40;48.50;;;;;;5002163;28;19937;-79
2022/07/20 07:44:34;;;;;;;;;;;25.40;48.30;;;;;;5001215;28;19984;-79
2022/07/20 07:47:01;;;;;;;;;;;25.40;48.40;;;;;;5011865;28;19933;-79
2022/07/20 07:49:28;;;;;;;;;;;25.50;48.30;;;;;;5002986;28;19930;-78
2022/07/20 07:51:54;;;;;;;;;;;25.50;48.10;;;;;;5003175;28;20386;-78
2022/07/20 07:54:22;;;;;;;;;;;25.50;48.10;;;;;;5015380;28;20338;-77
2022/07/20 07:56:49;;;;;;;;;;;25.50;47.90;;;;;;5000533;28;19933;-78
2022/07/20 07:59:15;;;;;;;;;;;25.60;47.70;;;;;;5003276;28;19940;-78
2022/07/20 08:01:42;;;;;;;;;;;25.60;47.80;;;;;;5003386;28;19934;-78
2022/07/20 08:04:08;;;;;;;;;;;25.70;47.70;;;;;;5003950;28;19933;-78
2022/07/20 08:06:36;;;;;;;;;;;25.70;47.60;;;;;;5004230;28;19929;-78
2022/07/20 08:09:03;;;;;;;;;;;25.80;47.50;;;;;;5003797;28;20617;-79
2022/07/20 08:11:31;;;;;;;;;;;25.80;47.50;;;;;;5004024;28;19935;-78
2022/07/20 08:14:00;;;;;;;;;;;25.80;48.00;;;;;;5002989;28;20526;-79
2022/07/20 08:16:26;;;;;;;;;;;25.80;47.30;;;;;;5006027;28;20032;-78
2022/07/20 08:18:53;;;;;;;;;;;25.90;47.20;;;;;;5002122;28;20303;-79
2022/07/20 08:21:19;;;;;;;;;;;25.90;47.10;;;;;;4998683;28;19930;-79
2022/07/20 08:23:46;;;;;;;;;;;26.00;46.90;;;;;;5000285;28;19929;-78
2022/07/20 08:26:12;;;;;;;;;;;26.00;46.80;;;;;;5008659;28;19940;-79
2022/07/20 08:28:41;;;;;;;;;;;26.00;46.60;;;;;;5000281;28;19955;-78
2022/07/20 08:31:07;;;;;;;;;;;26.10;46.70;;;;;;5002937;28;19975;-79
2022/07/20 08:33:34;;;;;;;;;;;26.10;46.60;;;;;;5011114;28;19937;-79
2022/07/20 08:36:00;;;;;;;;;;;26.20;46.70;;;;;;5007501;28;19936;-79
2022/07/20 08:38:27;;;;;;;;;;;26.20;46.50;;;;;;5009184;28;19944;-77
2022/07/20 08:40:54;;;;;;;;;;;26.20;46.50;;;;;;5006226;28;19937;-77
2022/07/20 08:43:21;;;;;;;;;;;26.30;46.50;;;;;;5005101;28;19936;-78
2022/07/20 08:45:49;;;;;;;;;;;26.40;46.50;;;;;;5003617;28;19937;-77
2022/07/20 08:48:18;;;;;;;;;;;26.40;46.30;;;;;;5005323;28;19940;-79
2022/07/20 08:50:45;;;;;;;;;;;26.40;46.20;;;;;;5013510;28;19936;-79
2022/07/20 08:53:12;;;;;;;;;;;26.40;46.10;;;;;;5010532;28;19934;-78
2022/07/20 08:55:38;;;;;;;;;;;26.50;46.10;;;;;;5014269;28;19936;-78
2022/07/20 08:58:05;;;;;;;;;;;26.50;46.00;;;;;;5005931;28;19929;-78
2022/07/20 09:00:31;;;;;;;;;;;26.60;46.10;;;;;;5007936;28;19932;-79
2022/07/20 09:03:01;;;;;;;;;;;26.60;46.10;;;;;;5009255;28;19929;-78
2022/07/20 09:05:28;;;;;;;;;;;26.70;46.30;;;;;;5007447;28;19929;-79
2022/07/20 09:07:56;;;;;;;;;;;26.80;46.30;;;;;;5003611;28;19934;-78
2022/07/20 09:10:25;;;;;;;;;;;26.80;46.20;;;;;;5011105;28;19967;-79
2022/07/20 09:12:53;;;;;;;;;;;26.80;46.20;;;;;;5010356;28;19930;-79
2022/07/20 09:15:27;;;;;;;;;;;26.90;46.40;;;;;;5007577;28;20416;-78
2022/07/20 09:18:03;;;;;;;;;;;26.90;46.30;;;;;;5015791;28;19944;-79
2022/07/20 09:20:30;;;;;;;;;;;27.00;46.50;;;;;;5006762;28;19936;-78
2022/07/20 09:23:00;;;;;;;;;;;27.00;46.40;;;;;;5007205;28;20540;-78
2022/07/20 09:25:27;;;;;;;;;;;27.10;46.30;;;;;;5013211;28;19930;-78
2022/07/20 09:27:53;;;;;;;;;;;27.10;46.30;;;;;;5006732;28;19934;-79
2022/07/20 09:30:20;;;;;;;;;;;27.20;46.30;;;;;;5003860;28;19930;-78
2022/07/20 09:32:58;;;;;;;;;;;27.20;46.30;;;;;;5015358;28;19941;-78
2022/07/20 09:35:27;;;;;;;;;;;27.30;46.30;;;;;;5005193;28;19934;-78
2022/07/20 09:37:55;;;;;;;;;;;27.40;46.40;;;;;;5009942;28;19940;-78
2022/07/20 09:40:22;;;;;;;;;;;27.50;46.40;;;;;;5007664;28;19953;-78
2022/07/20 09:42:49;;;;;;;;;;;27.50;46.50;;;;;;5004621;28;19936;-78
2022/07/20 09:45:22;;;;;;;;;;;27.50;46.30;;;;;;5006265;28;20649;-78
2022/07/20 09:48:02;;;;;;;;;;;27.60;46.20;;;;;;5010009;28;19935;-79
2022/07/20 09:50:30;;;;;;;;;;;27.70;46.10;;;;;;5010950;28;19988;-79
2022/07/20 09:52:57;;;;;;;;;;;27.80;46.10;;;;;;5009033;28;19929;-79
2022/07/20 09:55:24;;;;;;;;;;;27.80;46.10;;;;;;5019034;28;19933;-79
2022/07/20 09:57:50;;;;;;;;;;;27.90;46.10;;;;;;5006648;28;19929;-79
2022/07/20 10:00:17;;;;;;;;;;;28.00;46.10;;;;;;4999414;28;19929;-78
2022/07/20 10:02:45;;;;;;;;;;;28.10;46.00;;;;;;5007632;28;19940;-79
2022/07/20 10:05:11;;;;;;;;;;;28.10;45.90;;;;;;5011296;28;19934;-78
2022/07/20 10:07:39;;;;;;;;;;;28.20;45.80;;;;;;5003201;28;19929;-79
2022/07/20 10:10:06;;;;;;;;;;;28.30;45.80;;;;;;5008422;28;19929;-79
2022/07/20 10:12:33;;;;;;;;;;;28.40;45.80;;;;;;5004335;28;19933;-78
2022/07/20 10:15:00;;;;;;;;;;;28.40;45.80;;;;;;5006587;28;19930;-80
2022/07/20 10:17:30;;;;;;;;;;;28.50;45.90;;;;;;5013153;28;19929;-79
2022/07/20 10:19:56;;;;;;;;;;;28.60;45.80;;;;;;5010556;28;19941;-79
2022/07/20 10:22:23;;;;;;;;;;;28.70;45.60;;;;;;5004851;28;19930;-79
2022/07/20 10:25:12;;;;;;;;;;;28.70;45.50;;;;;;5016382;28;19964;-79
2022/07/20 10:27:39;;;;;;;;;;;28.80;45.30;;;;;;5001476;28;19952;-78
2022/07/20 10:30:15;;;;;;;;;;;28.90;45.30;;;;;;5002749;28;19930;-79
2022/07/20 10:32:51;;;;;;;;;;;29.00;45.30;;;;;;5008741;28;19929;-78
2022/07/20 10:35:25;;;;;;;;;;;29.00;45.80;;;;;;5004241;28;19930;-78
2022/07/20 10:37:53;;;;;;;;;;;29.10;45.00;;;;;;5012997;28;19986;-78
2022/07/20 10:40:21;;;;;;;;;;;29.20;45.00;;;;;;5010717;28;20458;-78
2022/07/20 10:42:48;;;;;;;;;;;29.30;44.90;;;;;;5002984;28;19930;-79
2022/07/20 10:45:31;;;;;;;;;;;29.30;44.90;;;;;;5004964;28;20318;-79
2022/07/20 10:48:00;;;;;;;;;;;29.40;44.80;;;;;;5006122;28;19929;-76
2022/07/20 10:50:29;;;;;;;;;;;29.50;44.80;;;;;;5007804;28;19929;-76
2022/07/20 10:52:57;;;;;;;;;;;29.60;44.60;;;;;;5006194;28;19952;-76
2022/07/20 10:55:44;;;;;;;;;;;29.60;44.60;;;;;;5013411;28;21478;-76
2022/07/20 10:58:12;;;;;;;;;;;29.70;44.50;;;;;;5002278;28;19936;-77
2022/07/20 11:00:40;;;;;;;;;;;29.80;44.50;;;;;;5009778;28;20297;-78
2022/07/20 11:03:11;;;;;;;;;;;29.90;44.40;;;;;;5006511;28;19930;-78
2022/07/20 11:05:38;;;;;;;;;;;30.00;44.20;;;;;;5004284;28;19929;-79
2022/07/20 11:08:05;;;;;;;;;;;30.00;44.20;;;;;;5003376;28;20008;-79
2022/07/20 11:10:32;;;;;;;;;;;30.10;44.20;;;;;;5004732;28;19976;-80
2022/07/20 11:12:59;;;;;;;;;;;30.10;44.10;;;;;;5003209;28;19929;-79
2022/07/20 11:15:38;;;;;;;;;;;30.20;44.10;;;;;;5002901;28;19933;-78
2022/07/20 11:18:06;;;;;;;;;;;30.30;43.90;;;;;;5004947;28;20313;-79
2022/07/20 11:20:33;;;;;;;;;;;30.40;43.90;;;;;;5005556;28;19936;-78
2022/07/20 11:23:00;;;;;;;;;;;30.40;43.60;;;;;;4997677;28;19936;-78
2022/07/20 11:25:28;;;;;;;;;;;30.40;43.50;;;;;;5013894;28;19937;-78
2022/07/20 11:28:01;;;;;;;;;;;30.50;43.50;;;;;;5004484;28;19939;-79
2022/07/20 11:30:34;;;;;;;;;;;30.60;43.50;;;;;;5009948;28;19930;-77
2022/07/20 11:33:02;;;;;;;;;;;30.60;43.30;;;;;;5007234;28;20158;-79
2022/07/20 11:35:29;;;;;;;;;;;30.70;43.30;;;;;;5009509;28;19937;-78
2022/07/20 11:37:55;;;;;;;;;;;30.80;43.30;;;;;;5015092;28;19929;-80
2022/07/20 11:40:22;;;;;;;;;;;30.80;43.30;;;;;;5011426;28;19929;-78
2022/07/20 11:43:09;;;;;;;;;;;30.90;43.30;;;;;;5005229;28;19937;-78
2022/07/20 11:45:36;;;;;;;;;;;30.90;43.10;;;;;;5002688;28;19937;-80
2022/07/20 11:48:15;;;;;;;;;;;31.00;43.10;;;;;;5005509;28;19929;-80
2022/07/20 11:50:41;;;;;;;;;;;31.00;43.20;;;;;;5003679;28;19936;-79
2022/07/20 11:53:22;;;;;;;;;;;31.10;43.10;;;;;;5006328;28;19941;-79
2022/07/20 11:55:48;;;;;;;;;;;31.10;42.90;;;;;;5008308;28;19936;-78
2022/07/20 11:58:15;;;;;;;;;;;31.30;42.70;;;;;;5002731;28;19941;-79
2022/07/20 12:00:42;;;;;;;;;;;31.30;42.60;;;;;;4998749;28;20405;-79
2022/07/20 12:03:10;;;;;;;;;;;31.40;42.50;;;;;;5006080;28;19929;-79
2022/07/20 12:05:37;;;;;;;;;;;31.50;42.50;;;;;;5005162;28;19948;-79
2022/07/20 12:08:13;;;;;;;;;;;31.50;42.30;;;;;;5004008;28;19937;-80
2022/07/20 12:10:41;;;;;;;;;;;31.50;42.20;;;;;;5004157;28;20409;-79
2022/07/20 12:13:08;;;;;;;;;;;31.60;42.00;;;;;;5004586;28;19930;-79
2022/07/20 12:15:35;;;;;;;;;;;31.60;41.90;;;;;;5009120;28;19929;-79
2022/07/20 12:18:01;;;;;;;;;;;31.70;42.00;;;;;;5004373;28;20772;-80
2022/07/20 12:20:29;;;;;;;;;;;31.70;41.80;;;;;;5002460;28;19930;-78
2022/07/20 12:22:57;;;;;;;;;;;31.80;41.80;;;;;;5005796;28;19936;-78
2022/07/20 12:25:34;;;;;;;;;;;31.90;41.90;;;;;;5007728;28;19929;-80
2022/07/20 12:28:01;;;;;;;;;;;31.90;41.80;;;;;;4999368;28;19964;-79
2022/07/20 12:30:28;;;;;;;;;;;31.90;41.70;;;;;;5001422;28;19933;-79
2022/07/20 12:33:05;;;;;;;;;;;32.00;41.60;;;;;;5010489;28;19933;-79
2022/07/20 12:35:33;;;;;;;;;;;32.10;41.50;;;;;;5004873;28;19929;-79
2022/07/20 12:38:00;;;;;;;;;;;32.10;41.60;;;;;;5003737;28;19929;-79
2022/07/20 12:40:44;;;;;;;;;;;32.20;41.60;;;;;;5007041;28;19929;-78
2022/07/20 12:43:25;;;;;;;;;;;32.20;41.50;;;;;;5000528;28;19936;-78
2022/07/20 12:45:52;;;;;;;;;;;32.30;41.30;;;;;;4995824;28;19936;-79
2022/07/20 12:48:19;;;;;;;;;;;32.40;41.20;;;;;;5000859;28;19933;-79
2022/07/20 12:50:46;;;;;;;;;;;32.40;41.10;;;;;;5009021;28;19933;-80
2022/07/20 12:53:13;;;;;;;;;;;32.40;41.10;;;;;;5009011;28;19956;-80
2022/07/20 12:55:40;;;;;;;;;;;32.50;40.90;;;;;;5007298;28;19930;-78
2022/07/20 12:58:06;;;;;;;;;;;32.60;40.70;;;;;;5001865;28;19940;-78
2022/07/20 13:00:33;;;;;;;;;;;32.60;40.70;;;;;;5002713;28;19937;-78
2022/07/20 13:02:59;;;;;;;;;;;32.70;40.50;;;;;;5006029;28;19929;-78
2022/07/20 13:05:26;;;;;;;;;;;32.70;40.40;;;;;;5005026;28;20009;-80
2022/07/20 13:07:54;;;;;;;;;;;32.80;40.40;;;;;;4999587;28;19957;-79
2022/07/20 13:10:20;;;;;;;;;;;32.90;40.40;;;;;;5004027;28;20317;-78
2022/07/20 13:12:47;;;;;;;;;;;32.90;40.20;;;;;;5004541;28;19936;-79
2022/07/20 13:15:14;;;;;;;;;;;32.90;40.30;;;;;;5021944;28;20396;-78
2022/07/20 13:17:40;;;;;;;;;;;33.00;40.00;;;;;;5005980;28;19984;-78
2022/07/20 13:20:08;;;;;;;;;;;33.00;39.90;;;;;;5003634;28;19930;-79
2022/07/20 13:22:34;;;;;;;;;;;33.00;40.00;;;;;;5016475;28;19929;-78
2022/07/20 13:25:02;;;;;;;;;;;33.00;39.70;;;;;;5020472;28;19929;-78
2022/07/20 13:27:29;;;;;;;;;;;33.00;39.40;;;;;;5006679;28;19933;-78
2022/07/20 13:29:57;;;;;;;;;;;33.00;39.40;;;;;;5011829;28;20334;-79
2022/07/20 13:32:23;;;;;;;;;;;33.00;39.60;;;;;;5005816;28;20362;-79
2022/07/20 13:34:50;;;;;;;;;;;33.00;39.70;;;;;;5007760;28;19929;-79
2022/07/20 13:37:16;;;;;;;;;;;33.00;39.80;;;;;;5006573;28;19937;-79
2022/07/20 13:39:43;;;;;;;;;;;33.00;39.80;;;;;;5013119;28;19933;-79
2022/07/20 13:42:11;;;;;;;;;;;33.00;39.80;;;;;;5002158;28;19930;-79
2022/07/20 13:44:38;;;;;;;;;;;33.00;40.00;;;;;;5008141;28;19933;-79
2022/07/20 13:47:04;;;;;;;;;;;32.90;40.00;;;;;;4999568;28;19933;-79
2022/07/20 13:49:31;;;;;;;;;;;33.00;40.20;;;;;;5009615;28;20560;-78
2022/07/20 13:51:57;;;;;;;;;;;32.90;40.20;;;;;;5004095;28;19929;-80
2022/07/20 13:54:24;;;;;;;;;;;33.00;40.30;;;;;;5023695;28;19940;-78
2022/07/20 13:56:51;;;;;;;;;;;32.90;40.40;;;;;;5003535;28;19933;-80
2022/07/20 13:59:19;;;;;;;;;;;32.90;40.40;;;;;;5005030;28;19929;-78
2022/07/20 14:01:46;;;;;;;;;;;33.00;40.60;;;;;;5003911;28;19971;-79
2022/07/20 14:04:13;;;;;;;;;;;33.00;40.60;;;;;;5014108;28;19929;-80
2022/07/20 14:06:40;;;;;;;;;;;33.00;40.60;;;;;;5005580;28;19940;-79
2022/07/20 14:09:06;;;;;;;;;;;33.00;40.60;;;;;;5007089;28;19992;-79
2022/07/20 14:11:33;;;;;;;;;;;33.10;40.60;;;;;;5007761;28;19984;-78
2022/07/20 14:14:01;;;;;;;;;;;33.10;40.60;;;;;;5005808;28;19940;-80
2022/07/20 14:16:29;;;;;;;;;;;33.10;40.40;;;;;;5001959;28;19952;-78
2022/07/20 14:18:55;;;;;;;;;;;33.20;40.40;;;;;;5007518;28;19929;-78
2022/07/20 14:21:22;;;;;;;;;;;33.30;40.20;;;;;;5014147;28;19930;-79
2022/07/20 14:23:49;;;;;;;;;;;33.40;40.30;;;;;;5007818;28;19934;-80
2022/07/20 14:26:15;;;;;;;;;;;33.40;40.10;;;;;;5015269;28;19929;-82